Time;durP1;ratioP1;P1;durP2;ratioP2;P2;SDS_P1;SDS_P2;PMS_P1;PMS_P2;Temp;Humidity;BMP_temperature;BMP_pressure;BME280_temperature;BME280_humidity;BME280_pressure;Samples;Min_cycle;Max_cycle;Signal;HPM_P1;HPM_P2
2024/03/18 00:00:49;;;;;;;;;;;;;;;;;;4875801;29;20344;-54
2024/03/18 00:03:15;;;;;;;;;;;;;;;;;;4876496;29;20003;-54
2024/03/18 00:05:41;;;;;;;;;;;;;;;;;;4876964;29;19951;-53
2024/03/18 00:08:07;;;;;;;;;;;;;;;;;;4870829;29;19951;-54
2024/03/18 00:10:33;;;;;;;;;;;;;;;;;;4875776;29;19951;-54
2024/03/18 00:12:59;;;;;;;;;;;;;;;;;;4875962;29;19962;-53
2024/03/18 00:15:24;;;;;;;;;;;;;;;;;;4885235;29;19958;-55
2024/03/18 00:17:50;;;;;;;;;;;;;;;;;;4873976;29;19965;-57
2024/03/18 00:20:16;;;;;;;;;;;;;;;;;;4871013;29;19975;-56
2024/03/18 00:22:42;;;;;;;;;;;;;;;;;;4874181;29;19957;-57
2024/03/18 00:25:08;;;;;;;;;;;;;;;;;;4872510;29;19963;-57
2024/03/18 00:27:36;;;;;;;;;;;;;;;;;;4872957;29;20010;-56
2024/03/18 00:30:04;;;;;;;;;;;;;;;;;;4862878;29;20011;-57
2024/03/18 00:32:30;;;;;;;;;;;;;;;;;;4866044;29;19911;-57
2024/03/18 00:34:56;;;;;;;;;;;;;;;;;;4866507;29;19950;-58
2024/03/18 00:37:23;;;;;;;;;;;;;;;;;;4869898;29;19943;-58
2024/03/18 00:39:49;;;;;;;;;;;;;;;;;;4864861;29;20372;-59
2024/03/18 00:42:16;;;;;;;;;;;;;;;;;;4860727;29;20309;-58
2024/03/18 00:44:42;;;;;;;;;;;;;;;;;;4861958;29;19942;-58
2024/03/18 00:47:07;;;;;;;;;;;;;;;;;;4864199;29;20369;-58
2024/03/18 00:49:33;;;;;;;;;;;;;;;;;;4864493;29;19916;-58
2024/03/18 00:51:59;;;;;;;;;;;;;;;;;;4863412;29;20435;-58
2024/03/18 00:54:25;;;;;;;;;;;;;;;;;;4867790;29;19943;-59
2024/03/18 00:56:51;;;;;;;;;;;;;;;;;;4868515;29;19912;-60
2024/03/18 00:59:17;;;;;;;;;;;;;;;;;;4865859;29;19919;-52
2024/03/18 01:01:43;;;;;;;;;;;;;;;;;;4860100;29;19957;-55
2024/03/18 01:04:09;;;;;;;;;;;;;;;;;;4866115;29;20368;-52
2024/03/18 01:06:36;;;;;;;;;;;;;;;;;;4866152;29;19975;-53
2024/03/18 01:09:04;;;;;;;;;;;;;;;;;;4863419;29;20399;-59
2024/03/18 01:11:30;;;;;;;;;;;;;;;;;;4865318;29;19919;-60
2024/03/18 01:13:55;;;;;;;;;;;;;;;;;;4860235;29;20014;-60
2024/03/18 01:16:21;;;;;;;;;;;;;;;;;;4861530;29;20333;-59
2024/03/18 01:18:48;;;;;;;;;;;;;;;;;;4865817;29;20377;-59
2024/03/18 01:21:14;;;;;;;;;;;;;;;;;;4863062;29;20048;-60
2024/03/18 01:23:39;;;;;;;;;;;;;;;;;;4865446;29;19999;-59
2024/03/18 01:26:05;;;;;;;;;;;;;;;;;;4863598;29;19919;-59
2024/03/18 01:28:31;;;;;;;;;;;;;;;;;;4866443;29;20003;-58
2024/03/18 01:31:03;;;;;;;;;;;;;;;;;;4871834;29;19922;-59
2024/03/18 01:33:29;;;;;;;;;;;;;;;;;;4865703;29;19927;-59
2024/03/18 01:35:55;;;;;;;;;;;;;;;;;;4869766;29;19967;-58
2024/03/18 01:38:21;;;;;;;;;;;;;;;;;;4863688;29;19970;-56
2024/03/18 01:40:46;;;;;;;;;;;;;;;;;;4867241;29;20360;-58
2024/03/18 01:43:13;;;;;;;;;;;;;;;;;;4871396;29;20432;-58
2024/03/18 01:45:39;;;;;;;;;;;;;;;;;;4864188;29;19926;-58
2024/03/18 01:48:05;;;;;;;;;;;;;;;;;;4862336;29;19947;-58
2024/03/18 01:50:31;;;;;;;;;;;;;;;;;;4869322;29;19951;-58
2024/03/18 01:52:57;;;;;;;;;;;;;;;;;;4869333;29;19919;-58
2024/03/18 01:55:23;;;;;;;;;;;;;;;;;;4869101;29;20328;-58
2024/03/18 01:57:49;;;;;;;;;;;;;;;;;;4865759;29;19943;-58
2024/03/18 02:00:23;;;;;;;;;;;;;;;;;;4864778;29;20459;-58
2024/03/18 02:02:49;;;;;;;;;;;;;;;;;;4861790;29;19923;-58
2024/03/18 02:05:14;;;;;;;;;;;;;;;;;;4861701;29;20365;-58
2024/03/18 02:07:41;;;;;;;;;;;;;;;;;;4864266;29;20730;-58
2024/03/18 02:10:09;;;;;;;;;;;;;;;;;;4866280;29;19915;-58
2024/03/18 02:12:36;;;;;;;;;;;;;;;;;;4865869;29;19912;-54
2024/03/18 02:15:02;;;;;;;;;;;;;;;;;;4866218;29;20349;-54
2024/03/18 02:17:28;;;;;;;;;;;;;;;;;;4866192;29;20431;-54
2024/03/18 02:19:54;;;;;;;;;;;;;;;;;;4868109;29;19951;-52
2024/03/18 02:22:20;;;;;;;;;;;;;;;;;;4871097;29;20017;-52
2024/03/18 02:24:46;;;;;;;;;;;;;;;;;;4861329;29;19967;-53
2024/03/18 02:27:12;;;;;;;;;;;;;;;;;;4863624;29;20015;-53
2024/03/18 02:29:38;;;;;;;;;;;;;;;;;;4859278;29;19955;-54
2024/03/18 02:32:04;;;;;;;;;;;;;;;;;;4859370;29;20327;-54
2024/03/18 02:34:33;;;;;;;;;;;;;;;;;;4859473;29;19955;-52
2024/03/18 02:36:59;;;;;;;;;;;;;;;;;;4865700;29;20018;-54
2024/03/18 02:39:26;;;;;;;;;;;;;;;;;;4859268;29;20345;-54
2024/03/18 02:41:52;;;;;;;;;;;;;;;;;;4859041;29;19955;-54
2024/03/18 02:44:18;;;;;;;;;;;;;;;;;;4858253;29;19974;-54
2024/03/18 02:46:44;;;;;;;;;;;;;;;;;;4862255;29;19942;-53
2024/03/18 02:49:10;;;;;;;;;;;;;;;;;;4859292;29;20321;-58
2024/03/18 02:51:36;;;;;;;;;;;;;;;;;;4865294;29;19931;-58
2024/03/18 02:54:02;;;;;;;;;;;;;;;;;;4859165;29;19958;-58
2024/03/18 02:56:28;;;;;;;;;;;;;;;;;;4857955;29;19972;-58
2024/03/18 02:58:55;;;;;;;;;;;;;;;;;;4859037;29;19975;-58
2024/03/18 03:01:20;;;;;;;;;;;;;;;;;;4860309;29;20006;-58
2024/03/18 03:03:47;;;;;;;;;;;;;;;;;;4859358;29;20079;-58
2024/03/18 03:06:13;;;;;;;;;;;;;;;;;;4858698;29;19936;-57
2024/03/18 03:08:39;;;;;;;;;;;;;;;;;;4857069;29;20351;-58
2024/03/18 03:11:06;;;;;;;;;;;;;;;;;;4858021;29;19943;-58
2024/03/18 03:13:31;;;;;;;;;;;;;;;;;;4857800;29;19916;-58
2024/03/18 03:15:58;;;;;;;;;;;;;;;;;;4858030;29;20321;-57
2024/03/18 03:18:24;;;;;;;;;;;;;;;;;;4858011;29;19996;-58
2024/03/18 03:20:50;;;;;;;;;;;;;;;;;;4858658;29;19920;-58
2024/03/18 03:23:16;;;;;;;;;;;;;;;;;;4857836;29;19947;-57
2024/03/18 03:25:43;;;;;;;;;;;;;;;;;;4858621;29;19919;-57
2024/03/18 03:28:09;;;;;;;;;;;;;;;;;;4885283;29;19923;-58
2024/03/18 03:30:35;;;;;;;;;;;;;;;;;;4893119;29;20613;-58
2024/03/18 03:33:04;;;;;;;;;;;;;;;;;;4892268;29;20312;-58
2024/03/18 03:35:30;;;;;;;;;;;;;;;;;;4887990;29;20370;-57
2024/03/18 03:37:56;;;;;;;;;;;;;;;;;;4891105;29;19912;-58
2024/03/18 03:40:22;;;;;;;;;;;;;;;;;;4890606;29;19965;-55
2024/03/18 03:42:48;;;;;;;;;;;;;;;;;;4893756;29;19963;-58
2024/03/18 03:45:14;;;;;;;;;;;;;;;;;;4891424;29;19951;-58
2024/03/18 03:47:40;;;;;;;;;;;;;;;;;;4892468;29;20287;-57
2024/03/18 03:50:06;;;;;;;;;;;;;;;;;;4895766;29;19926;-57
2024/03/18 03:52:32;;;;;;;;;;;;;;;;;;4895527;29;19915;-57
2024/03/18 03:54:58;;;;;;;;;;;;;;;;;;4892340;29;19916;-57
2024/03/18 03:57:24;;;;;;;;;;;;;;;;;;4891169;29;19959;-57
2024/03/18 03:59:50;;;;;;;;;;;;;;;;;;4894780;29;19915;-57
2024/03/18 04:02:17;;;;;;;;;;;;;;;;;;4891878;29;20489;-53
2024/03/18 04:04:43;;;;;;;;;;;;;;;;;;4896370;29;20367;-53
2024/03/18 04:07:09;;;;;;;;;;;;;;;;;;4889150;29;19955;-54
2024/03/18 04:09:35;;;;;;;;;;;;;;;;;;4893546;29;20275;-54
2024/03/18 04:12:01;;;;;;;;;;;;;;;;;;4885903;29;20360;-52
2024/03/18 04:14:27;;;;;;;;;;;;;;;;;;4889423;29;20344;-52
2024/03/18 04:16:52;;;;;;;;;;;;;;;;;;4895465;29;20679;-53
2024/03/18 04:19:19;;;;;;;;;;;;;;;;;;4894620;29;20375;-53
2024/03/18 04:21:45;;;;;;;;;;;;;;;;;;4891842;29;19954;-53
2024/03/18 04:24:12;;;;;;;;;;;;;;;;;;4892418;29;19911;-53
2024/03/18 04:26:38;;;;;;;;;;;;;;;;;;4891340;29;20011;-53
2024/03/18 04:29:03;;;;;;;;;;;;;;;;;;4888100;29;19959;-54
2024/03/18 04:31:29;;;;;;;;;;;;;;;;;;4890631;29;19951;-54
2024/03/18 04:33:55;;;;;;;;;;;;;;;;;;4888410;29;19959;-54
2024/03/18 04:36:22;;;;;;;;;;;;;;;;;;4896852;29;19948;-53
2024/03/18 04:38:48;;;;;;;;;;;;;;;;;;4890466;29;19957;-54
2024/03/18 04:41:14;;;;;;;;;;;;;;;;;;4890953;29;19950;-52
2024/03/18 04:43:40;;;;;;;;;;;;;;;;;;4890133;29;19962;-53
2024/03/18 04:46:06;;;;;;;;;;;;;;;;;;4891843;29;19947;-52
2024/03/18 04:48:32;;;;;;;;;;;;;;;;;;4888085;29;19958;-53
2024/03/18 04:50:58;;;;;;;;;;;;;;;;;;4895619;29;19947;-52
2024/03/18 04:53:23;;;;;;;;;;;;;;;;;;4890185;29;19962;-53
2024/03/18 04:55:49;;;;;;;;;;;;;;;;;;4888495;29;19962;-54
2024/03/18 04:58:15;;;;;;;;;;;;;;;;;;4893388;29;19955;-53
2024/03/18 05:00:41;;;;;;;;;;;;;;;;;;4892523;29;19967;-54
2024/03/18 05:03:07;;;;;;;;;;;;;;;;;;4890474;29;19987;-53
2024/03/18 05:05:33;;;;;;;;;;;;;;;;;;4891399;29;19983;-53
2024/03/18 05:07:59;;;;;;;;;;;;;;;;;;4892543;29;19959;-53
2024/03/18 05:10:27;;;;;;;;;;;;;;;;;;4885616;29;19955;-53
2024/03/18 05:12:53;;;;;;;;;;;;;;;;;;4893042;29;19972;-58
2024/03/18 05:15:19;;;;;;;;;;;;;;;;;;4892928;29;19963;-58
2024/03/18 05:17:48;;;;;;;;;;;;;;;;;;4892336;29;20372;-58
2024/03/18 05:20:14;;;;;;;;;;;;;;;;;;4890955;29;19916;-58
2024/03/18 05:22:40;;;;;;;;;;;;;;;;;;4884259;29;19911;-58
2024/03/18 05:25:07;;;;;;;;;;;;;;;;;;4885697;29;19912;-58
2024/03/18 05:27:33;;;;;;;;;;;;;;;;;;4888719;29;19923;-58
2024/03/18 05:29:59;;;;;;;;;;;;;;;;;;4893967;29;19926;-58
2024/03/18 05:32:25;;;;;;;;;;;;;;;;;;4890089;29;19994;-58
2024/03/18 05:34:52;;;;;;;;;;;;;;;;;;4896502;29;20042;-59
2024/03/18 05:37:18;;;;;;;;;;;;;;;;;;4886577;29;19969;-58
2024/03/18 05:39:44;;;;;;;;;;;;;;;;;;4887125;29;20490;-58
2024/03/18 05:42:10;;;;;;;;;;;;;;;;;;4890515;29;20427;-57
2024/03/18 05:44:37;;;;;;;;;;;;;;;;;;4891411;29;20316;-58
2024/03/18 05:47:03;;;;;;;;;;;;;;;;;;4895471;29;19966;-58
2024/03/18 05:49:28;;;;;;;;;;;;;;;;;;4891578;29;19915;-58
2024/03/18 05:51:55;;;;;;;;;;;;;;;;;;4891011;29;19966;-58
2024/03/18 05:54:21;;;;;;;;;;;;;;;;;;4896328;29;19911;-58
2024/03/18 05:56:46;;;;;;;;;;;;;;;;;;4889826;29;19954;-59
2024/03/18 05:59:13;;;;;;;;;;;;;;;;;;4893802;29;20006;-58
2024/03/18 06:01:38;;;;;;;;;;;;;;;;;;4894010;29;20293;-56
2024/03/18 06:04:04;;;;;;;;;;;;;;;;;;4893114;29;19979;-58
2024/03/18 06:06:30;;;;;;;;;;;;;;;;;;4893775;29;19953;-58
2024/03/18 06:08:57;;;;;;;;;;;;;;;;;;4892023;29;20398;-56
2024/03/18 06:11:23;;;;;;;;;;;;;;;;;;4891694;29;20375;-55
2024/03/18 06:13:48;;;;;;;;;;;;;;;;;;4891644;29;19976;-57
2024/03/18 06:16:14;;;;;;;;;;;;;;;;;;4892190;29;19955;-57
2024/03/18 06:18:42;;;;;;;;;;;;;;;;;;4895348;29;19957;-58
2024/03/18 06:21:16;;;;;;;;;;;;;;;;;;4899766;29;19923;-57
2024/03/18 06:23:46;;;;;;;;;;;;;;;;;;4892993;29;19958;-57
2024/03/18 06:26:12;;;;;;;;;;;;;;;;;;4893195;29;19911;-57
2024/03/18 06:28:38;;;;;;;;;;;;;;;;;;4891837;29;19970;-57
2024/03/18 06:31:05;;;;;;;;;;;;;;;;;;4890720;29;20002;-56
2024/03/18 06:33:31;;;;;;;;;;;;;;;;;;4897612;29;19915;-57
2024/03/18 06:35:57;;;;;;;;;;;;;;;;;;4893165;29;19915;-57
2024/03/18 06:38:23;;;;;;;;;;;;;;;;;;4895444;29;19998;-55
2024/03/18 06:40:49;;;;;;;;;;;;;;;;;;4890029;29;20011;-56
2024/03/18 06:43:17;;;;;;;;;;;;;;;;;;4893087;29;20355;-58
2024/03/18 06:45:43;;;;;;;;;;;;;;;;;;4894265;29;19916;-58
2024/03/18 06:48:09;;;;;;;;;;;;;;;;;;4896374;29;19981;-58
2024/03/18 06:50:35;;;;;;;;;;;;;;;;;;4893589;29;20013;-55
2024/03/18 06:53:02;;;;;;;;;;;;;;;;;;4891383;29;19915;-58
2024/03/18 06:55:28;;;;;;;;;;;;;;;;;;4891101;29;20002;-58
2024/03/18 06:57:54;;;;;;;;;;;;;;;;;;4896704;29;20406;-58
2024/03/18 07:00:23;;;;;;;;;;;;;;;;;;4893151;29;19915;-57
2024/03/18 07:02:49;;;;;;;;;;;;;;;;;;4895349;29;19982;-54
2024/03/18 07:05:15;;;;;;;;;;;;;;;;;;4894315;29;19941;-54
2024/03/18 07:07:41;;;;;;;;;;;;;;;;;;4895247;29;19924;-52
2024/03/18 07:10:09;;;;;;;;;;;;;;;;;;4894455;29;19911;-54
2024/03/18 07:12:34;;;;;;;;;;;;;;;;;;4896033;29;19922;-54
2024/03/18 07:15:01;;;;;;;;;;;;;;;;;;4895627;29;19915;-57
2024/03/18 07:17:26;;;;;;;;;;;;;;;;;;4892848;29;20077;-55
2024/03/18 07:19:52;;;;;;;;;;;;;;;;;;4894320;29;20010;-52
2024/03/18 07:22:18;;;;;;;;;;;;;;;;;;4893607;29;19975;-53
2024/03/18 07:24:44;;;;;;;;;;;;;;;;;;4889839;29;19986;-54
2024/03/18 07:27:10;;;;;;;;;;;;;;;;;;4892145;29;20363;-53
2024/03/18 07:29:36;;;;;;;;;;;;;;;;;;4886347;29;20006;-55
2024/03/18 07:32:02;;;;;;;;;;;;;;;;;;4894447;29;19977;-59
2024/03/18 07:34:28;;;;;;;;;;;;;;;;;;4894935;29;19953;-59
2024/03/18 07:36:55;;;;;;;;;;;;;;;;;;4895865;29;19951;-59
2024/03/18 07:39:25;;;;;;;;;;;;;;;;;;4892739;29;20315;-58
2024/03/18 07:41:51;;;;;;;;;;;;;;;;;;4894893;29;20325;-57
2024/03/18 07:44:19;;;;;;;;;;;;;;;;;;4892571;29;20002;-57
2024/03/18 07:46:45;;;;;;;;;;;;;;;;;;4890329;29;20451;-59
2024/03/18 07:49:11;;;;;;;;;;;;;;;;;;4894482;29;20042;-59
2024/03/18 07:51:37;;;;;;;;;;;;;;;;;;4887921;29;20391;-59
2024/03/18 07:54:03;;;;;;;;;;;;;;;;;;4889036;29;19971;-58
2024/03/18 07:56:29;;;;;;;;;;;;;;;;;;4888805;29;19916;-58
2024/03/18 07:58:55;;;;;;;;;;;;;;;;;;4891316;29;20006;-58
2024/03/18 08:01:21;;;;;;;;;;;;;;;;;;4892938;29;19966;-58
2024/03/18 08:03:47;;;;;;;;;;;;;;;;;;4887804;29;19958;-58
2024/03/18 08:06:13;;;;;;;;;;;;;;;;;;4884734;29;19958;-59
2024/03/18 08:08:39;;;;;;;;;;;;;;;;;;4893527;29;20451;-59
2024/03/18 08:11:05;;;;;;;;;;;;;;;;;;4889985;29;19919;-54
2024/03/18 08:13:31;;;;;;;;;;;;;;;;;;4892777;29;20680;-55
2024/03/18 08:15:57;;;;;;;;;;;;;;;;;;4884480;29;19958;-55
2024/03/18 08:18:23;;;;;;;;;;;;;;;;;;4891305;29;19958;-58
2024/03/18 08:20:49;;;;;;;;;;;;;;;;;;4888293;29;20300;-56
2024/03/18 08:23:15;;;;;;;;;;;;;;;;;;4890026;29;20366;-55
2024/03/18 08:25:41;;;;;;;;;;;;;;;;;;4892729;29;20686;-55
2024/03/18 08:28:07;;;;;;;;;;;;;;;;;;4894252;29;20334;-56
2024/03/18 08:30:33;;;;;;;;;;;;;;;;;;4886667;29;20387;-55
2024/03/18 08:32:59;;;;;;;;;;;;;;;;;;4888755;29;19921;-55
2024/03/18 08:35:25;;;;;;;;;;;;;;;;;;4892996;29;20002;-56
2024/03/18 08:37:51;;;;;;;;;;;;;;;;;;4890009;29;19975;-55
2024/03/18 08:40:17;;;;;;;;;;;;;;;;;;4892313;29;20041;-58
2024/03/18 08:42:43;;;;;;;;;;;;;;;;;;4892294;29;20401;-59
2024/03/18 08:45:09;;;;;;;;;;;;;;;;;;4891083;29;19967;-59
2024/03/18 08:47:35;;;;;;;;;;;;;;;;;;4888549;29;20407;-58
2024/03/18 08:50:02;;;;;;;;;;;;;;;;;;4891702;29;19919;-59
2024/03/18 08:52:28;;;;;;;;;;;;;;;;;;4891612;29;20299;-58
2024/03/18 08:54:54;;;;;;;;;;;;;;;;;;4888663;29;19998;-58
2024/03/18 08:57:20;;;;;;;;;;;;;;;;;;4891656;29;19915;-58
2024/03/18 08:59:46;;;;;;;;;;;;;;;;;;4892544;29;19973;-58
2024/03/18 09:02:12;;;;;;;;;;;;;;;;;;4886971;29;19951;-58
2024/03/18 09:04:40;;;;;;;;;;;;;;;;;;4892949;29;19958;-58
2024/03/18 09:07:06;;;;;;;;;;;;;;;;;;4892129;29;19918;-58
2024/03/18 09:09:32;;;;;;;;;;;;;;;;;;4890073;29;20603;-58
2024/03/18 09:12:00;;;;;;;;;;;;;;;;;;4888683;29;20316;-57
2024/03/18 09:14:26;;;;;;;;;;;;;;;;;;4886064;29;19919;-57
2024/03/18 09:16:52;;;;;;;;;;;;;;;;;;4892948;29;19911;-56
2024/03/18 09:19:18;;;;;;;;;;;;;;;;;;4887689;29;20068;-57
2024/03/18 09:21:44;;;;;;;;;;;;;;;;;;4890140;29;19983;-54
2024/03/18 09:24:10;;;;;;;;;;;;;;;;;;4888021;29;19953;-53
2024/03/18 09:26:35;;;;;;;;;;;;;;;;;;4891346;29;19915;-53
2024/03/18 09:29:01;;;;;;;;;;;;;;;;;;4894990;29;19962;-53
2024/03/18 09:31:27;;;;;;;;;;;;;;;;;;4891653;29;19958;-55
2024/03/18 09:33:53;;;;;;;;;;;;;;;;;;4890315;29;19946;-55
2024/03/18 09:36:19;;;;;;;;;;;;;;;;;;4883621;29;20340;-53
2024/03/18 09:38:45;;;;;;;;;;;;;;;;;;4892916;29;20344;-53
2024/03/18 09:41:11;;;;;;;;;;;;;;;;;;4884627;29;19924;-54
2024/03/18 09:43:37;;;;;;;;;;;;;;;;;;4893428;29;19959;-54
2024/03/18 09:46:03;;;;;;;;;;;;;;;;;;4891167;29;19947;-53
2024/03/18 09:48:29;;;;;;;;;;;;;;;;;;4890931;29;19919;-53
2024/03/18 09:50:55;;;;;;;;;;;;;;;;;;4890292;29;19950;-54
2024/03/18 09:53:21;;;;;;;;;;;;;;;;;;4895826;29;19966;-58
2024/03/18 09:55:47;;;;;;;;;;;;;;;;;;4889567;29;19962;-58
2024/03/18 09:58:14;;;;;;;;;;;;;;;;;;4893758;29;20269;-58
2024/03/18 10:00:40;;;;;;;;;;;;;;;;;;4887908;29;19920;-58
2024/03/18 10:03:05;;;;;;;;;;;;;;;;;;4894496;29;19920;-58
2024/03/18 10:05:31;;;;;;;;;;;;;;;;;;4897980;29;19942;-59
2024/03/18 10:07:58;;;;;;;;;;;;;;;;;;4895994;29;19964;-57
2024/03/18 10:10:25;;;;;;;;;;;;;;;;;;4892071;29;19919;-57
2024/03/18 10:12:51;;;;;;;;;;;;;;;;;;4896349;29;19915;-59
2024/03/18 10:15:17;;;;;;;;;;;;;;;;;;4894826;29;20439;-58
2024/03/18 10:17:43;;;;;;;;;;;;;;;;;;4892322;29;19971;-58
2024/03/18 10:20:11;;;;;;;;;;;;;;;;;;4897101;29;20018;-58
2024/03/18 10:22:37;;;;;;;;;;;;;;;;;;4897102;29;20005;-58
2024/03/18 10:25:03;;;;;;;;;;;;;;;;;;4894837;29;20351;-58
2024/03/18 10:27:29;;;;;;;;;;;;;;;;;;4893129;29;19933;-58
2024/03/18 10:29:56;;;;;;;;;;;;;;;;;;4896548;29;19978;-58
2024/03/18 10:32:22;;;;;;;;;;;;;;;;;;4897039;29;19963;-54
2024/03/18 10:34:48;;;;;;;;;;;;;;;;;;4891819;29;19966;-54
2024/03/18 10:37:13;;;;;;;;;;;;;;;;;;4892378;29;19958;-54
2024/03/18 10:39:40;;;;;;;;;;;;;;;;;;4893046;29;19970;-55
2024/03/18 10:42:06;;;;;;;;;;;;;;;;;;4888703;29;19912;-55
2024/03/18 10:44:32;;;;;;;;;;;;;;;;;;4890839;29;20301;-55
2024/03/18 10:46:59;;;;;;;;;;;;;;;;;;4888054;29;19976;-54
2024/03/18 10:49:25;;;;;;;;;;;;;;;;;;4889139;29;19919;-54
2024/03/18 10:51:51;;;;;;;;;;;;;;;;;;4888753;29;19954;-55
2024/03/18 10:54:17;;;;;;;;;;;;;;;;;;4894933;29;19973;-54
2024/03/18 10:56:44;;;;;;;;;;;;;;;;;;4889350;29;19947;-54
2024/03/18 10:59:10;;;;;;;;;;;;;;;;;;4892216;29;20011;-55
2024/03/18 11:01:36;;;;;;;;;;;;;;;;;;4887006;29;20021;-53
2024/03/18 11:04:02;;;;;;;;;;;;;;;;;;4889439;29;19912;-58
2024/03/18 11:06:28;;;;;;;;;;;;;;;;;;4889129;29;19912;-57
2024/03/18 11:08:56;;;;;;;;;;;;;;;;;;4891896;29;19954;-58
2024/03/18 11:11:22;;;;;;;;;;;;;;;;;;4891132;29;19912;-58
2024/03/18 11:13:48;;;;;;;7.07;3.67;;;;;;;;;;4895293;29;20370;-58
2024/03/18 11:16:14;;;;;;;4.93;4.00;;;;;;;;;;4891308;29;20366;-57
2024/03/18 11:18:48;;;;;;;3.27;2.90;;;;;;;;;;4886088;29;20204;-57
2024/03/18 11:21:22;;;;;;;4.90;3.07;;;;;;;;;;4882127;29;20291;-57
2024/03/18 11:23:57;;;;;;;5.87;3.10;;;;;;;;;;4890827;29;20215;-56
2024/03/18 11:26:24;;;;;;;5.57;3.90;;;;;;;;;;4891363;29;20489;-59
2024/03/18 11:29:00;;;;;;;4.93;3.57;;;;;;;;;;4894844;29;20642;-58
2024/03/18 11:31:33;;;;;;;4.80;3.97;;;;;;;;;;4892618;29;20191;-58
2024/03/18 11:34:00;;;;;;;;;;;;;;;;;;4885697;29;20278;-58
2024/03/18 11:36:26;;;;;;;5.93;4.17;;;;;;;;;;4895316;29;20386;-59
2024/03/18 11:38:52;;;;;;;6.13;4.77;;;;;;;;;;4892392;29;20641;-59
2024/03/18 11:41:18;;;;;;;5.63;4.77;;;;;;;;;;4888834;29;20669;-57
2024/03/18 11:43:48;;;;;;;6.67;4.90;;;;;;;;;;4891055;29;20181;-59
2024/03/18 11:46:15;;;;;;;5.57;5.07;;;;;;;;;;4889994;29;20180;-58
2024/03/18 11:48:42;;;;;;;7.70;5.13;;;;;;;;;;4882024;29;20512;-59
2024/03/18 11:51:09;;;;;;;9.23;5.67;;;;;;;;;;4884886;29;20190;-59
2024/03/18 11:53:35;;;;;;;8.83;5.80;;;;;;;;;;4885649;29;20596;-59
2024/03/18 11:56:01;;;;;;;8.43;5.93;;;;;;;;;;4894672;29;20545;-59
2024/03/18 11:58:28;;;;;;;8.07;5.73;;;;;;;;;;4894019;29;20647;-59
2024/03/18 12:00:54;;;;;;;6.33;5.47;;;;;;;;;;4890607;29;20235;-59
2024/03/18 12:03:23;;;;;;;11.10;5.90;;;;;;;;;;4894868;29;20179;-60
2024/03/18 12:05:50;;;;;;;6.70;5.83;;;;;;;;;;4886843;29;20631;-59
2024/03/18 12:08:20;;;;;;;6.90;5.33;;;;;;;;;;4889610;29;20177;-59
2024/03/18 12:10:53;;;;;;;7.20;6.20;;;;;;;;;;4891890;29;20183;-59
2024/03/18 12:13:20;;;;;;;10.87;6.97;;;;;;;;;;4890153;29;20383;-53
2024/03/18 12:15:46;;;;;;;6.83;5.83;;;;;;;;;;4889705;29;20179;-54
2024/03/18 12:18:13;;;;;;;7.70;6.43;;;;;;;;;;4889085;29;20178;-53
2024/03/18 12:20:39;;;;;;;8.37;6.80;;;;;;;;;;4892659;29;20263;-53
2024/03/18 12:23:06;;;;;;;9.23;7.27;;;;;;;;;;4887052;29;20200;-55
2024/03/18 12:28:42;;;;;;;8.67;7.37;;;;;;;;;;4890765;29;20230;-54
2024/03/18 12:31:17;;;;;;;8.70;7.63;;;;;;;;;;4893257;29;20178;-53
2024/03/18 12:33:44;;;;;;;11.27;7.87;;;;;;;;;;4888933;29;20586;-54
2024/03/18 12:36:13;;;;;;;8.57;7.50;;;;;;;;;;4891372;29;20234;-54
2024/03/18 12:38:39;;;;;;;10.80;8.07;;;;;;;;;;4891148;29;20663;-53
2024/03/18 12:41:05;;;;;;;11.83;8.90;;;;;;;;;;4885444;29;20682;-52
2024/03/18 12:43:32;;;;;;;11.03;8.73;;;;;;;;;;4891662;29;20201;-55
2024/03/18 12:46:00;;;;;;;9.77;8.07;;;;;;;;;;4888868;29;20184;-55
2024/03/18 12:48:26;;;;;;;11.13;8.63;;;;;;;;;;4891715;29;20178;-56
2024/03/18 12:50:52;;;;;;;11.73;8.60;;;;;;;;;;4885861;29;20234;-54
2024/03/18 12:53:21;;;;;;;10.63;9.20;;;;;;;;;;4892700;29;20211;-55
2024/03/18 12:55:47;;;;;;;10.23;8.60;;;;;;;;;;4891737;29;20186;-55
2024/03/18 12:58:14;;;;;;;11.63;9.53;;;;;;;;;;4890054;29;20282;-54
2024/03/18 13:00:41;;;;;;;13.33;9.63;;;;;;;;;;4890601;29;20207;-54
2024/03/18 13:03:09;;;;;;;10.33;9.27;;;;;;;;;;4885995;29;20182;-54
2024/03/18 13:05:37;;;;;;;11.33;9.17;;;;;;;;;;4888354;29;20682;-53
2024/03/18 13:08:04;;;;;;;17.30;10.93;;;;;;;;;;4889457;29;20901;-55
2024/03/18 13:10:30;;;;;;;11.67;10.27;;;;;;;;;;4887988;29;20706;-56
2024/03/18 13:12:56;;;;;;;12.37;11.00;;;;;;;;;;4887459;29;20183;-55
2024/03/18 13:15:22;;;;;;;16.25;10.40;;;;;;;;;;4886145;29;20273;-55
2024/03/18 13:17:49;;;;;;;15.00;10.70;;;;;;;;;;4890171;29;20294;-55
2024/03/18 13:20:17;;;;;;;13.70;10.87;;;;;;;;;;4885758;29;20273;-55
2024/03/18 13:22:43;;;;;;;14.83;11.30;;;;;;;;;;4881703;29;20207;-55
2024/03/18 13:25:09;;;;;;;12.97;10.27;;;;;;;;;;4886450;29;20222;-58
2024/03/18 13:27:36;;;;;;;15.97;11.07;;;;;;;;;;4887865;29;20587;-57
2024/03/18 13:30:05;;;;;;;13.43;10.97;;;;;;;;;;4887338;29;20189;-58
2024/03/18 13:32:31;;;;;;;12.50;10.30;;;;;;;;;;4890737;29;20271;-58
2024/03/18 13:34:57;;;;;;;13.30;9.80;;;;;;;;;;4890854;29;20184;-58
2024/03/18 13:37:24;;;;;;;11.75;10.55;;;;;;;;;;4892129;29;20181;-57
2024/03/18 13:39:51;;;;;;;13.27;10.07;;;;;;;;;;4891149;29;20700;-58
2024/03/18 13:42:18;;;;;;;12.67;10.27;;;;;;;;;;4889705;29;20217;-57
2024/03/18 13:44:45;;;;;;;12.27;10.00;;;;;;;;;;4892032;29;20163;-57
2024/03/18 13:47:17;;;;;;;17.90;11.75;;;;;;;;;;4892079;29;20240;-58
2024/03/18 13:49:43;;;;;;;12.00;9.90;;;;;;;;;;4894752;29;20197;-58
2024/03/18 13:52:14;;;;;;;11.90;10.70;;;;;;;;;;4890961;29;20735;-58
2024/03/18 13:54:41;;;;;;;13.23;9.73;;;;;;;;;;4890827;29;20644;-58
2024/03/18 13:57:07;;;;;;;12.50;10.37;;;;;;;;;;4887182;29;20216;-58
2024/03/18 13:59:41;;;;;;;15.13;10.13;;;;;;;;;;4892274;29;20266;-58
2024/03/18 14:02:08;;;;;;;14.27;11.07;;;;;;;;;;4888971;29;20194;-58
2024/03/18 14:04:34;;;;;;;10.90;9.57;;;;;;;;;;4892553;29;20186;-54
2024/03/18 14:07:06;;;;;;;16.23;11.07;;;;;;;;;;4891349;29;20186;-54
2024/03/18 14:09:33;;;;;;;27.37;11.80;;;;;;;;;;4889901;29;20177;-56
2024/03/18 14:12:00;;;;;;;14.00;11.20;;;;;;;;;;4885707;29;20194;-56
2024/03/18 14:14:33;;;;;;;16.33;11.07;;;;;;;;;;4885007;29;20561;-57
2024/03/18 14:17:02;;;;;;;15.13;10.47;;;;;;;;;;4887612;29;20624;-55
2024/03/18 14:19:30;;;;;;;16.10;10.10;;;;;;;;;;4888111;29;20192;-55
2024/03/18 14:21:56;;;;;;;18.37;10.27;;;;;;;;;;4887601;29;20195;-55
2024/03/18 14:24:22;;;;;;;15.40;10.57;;;;;;;;;;4890200;29;20354;-54
2024/03/18 14:26:48;;;;;;;12.90;10.97;;;;;;;;;;4888250;29;20268;-58
2024/03/18 14:29:14;;;;;;;14.27;11.67;;;;;;;;;;4891510;29;20191;-55
2024/03/18 14:31:40;;;;;;;23.80;11.37;;;;;;;;;;4890468;29;20681;-57
2024/03/18 14:34:06;;;;;;;18.87;10.90;;;;;;;;;;4889355;29;20658;-56
2024/03/18 14:36:36;;;;;;;12.97;9.73;;;;;;;;;;4888161;29;20178;-56
2024/03/18 14:39:04;;;;;;;13.67;9.17;;;;;;;;;;4891254;29;20273;-56
2024/03/18 14:41:30;;;;;;;14.67;9.13;;;;;;;;;;4894185;29;20634;-56
2024/03/18 14:43:56;;;;;;;11.23;9.13;;;;;;;;;;4893876;29;20253;-58
2024/03/18 14:46:22;;;;;;;11.60;8.57;;;;;;;;;;4892172;29;20227;-58
2024/03/18 14:48:48;;;;;;;14.53;9.03;;;;;;;;;;4893681;29;20259;-59
2024/03/18 14:51:14;;;;;;;11.70;8.40;;;;;;;;;;4893052;29;20707;-59
2024/03/18 14:53:42;;;;;;;13.77;8.37;;;;;;;;;;4892611;29;20190;-57
2024/03/18 14:56:09;;;;;;;10.50;8.27;;;;;;;;;;4892946;29;20207;-58
2024/03/18 14:58:35;;;;;;;11.27;8.43;;;;;;;;;;4892713;29;20179;-64
2024/03/18 15:01:01;;;;;;;10.47;8.30;;;;;;;;;;4892879;29;20216;-59
2024/03/18 15:03:27;;;;;;;9.03;7.67;;;;;;;;;;4891173;29;20204;-59
2024/03/18 15:05:54;;;;;;;14.53;7.93;;;;;;;;;;4891042;29;20207;-59
2024/03/18 15:08:20;;;;;;;12.30;8.00;;;;;;;;;;4892527;29;20651;-58
2024/03/18 15:10:46;;;;;;;14.17;8.00;;;;;;;;;;4890238;29;20923;-58
2024/03/18 15:13:15;;;;;;;13.33;7.70;;;;;;;;;;4890219;29;20235;-60
2024/03/18 15:15:41;;;;;;;12.07;8.23;;;;;;;;;;4892034;29;20178;-55
2024/03/18 15:18:08;;;;;;;13.30;7.93;;;;;;;;;;4889983;29;20234;-57
2024/03/18 15:20:34;;;;;;;10.53;8.47;;;;;;;;;;4888361;29;20213;-56
2024/03/18 15:23:01;;;;;;;11.57;8.30;;;;;;;;;;4889990;29;20205;-57
2024/03/18 15:28:12;;;;;;;9.40;8.00;;;;;;;;;;4865501;29;20230;-55
2024/03/18 15:30:39;;;;;;;10.20;8.00;;;;;;;;;;4856416;29;20194;-54
2024/03/18 15:33:05;;;;;;;12.07;8.30;;;;;;;;;;4858722;29;20175;-54
2024/03/18 15:35:31;;;;;;;10.60;8.70;;;;;;;;;;4856784;29;20238;-56
2024/03/18 15:37:57;;;;;;;17.13;8.60;;;;;;;;;;4858383;29;20189;-55
2024/03/18 15:40:24;;;;;;;13.03;8.10;;;;;;;;;;4856458;29;20198;-55
2024/03/18 15:42:51;;;;;;;11.07;8.23;;;;;;;;;;4858099;29;20207;-55
2024/03/18 15:45:18;;;;;;;13.43;8.17;;;;;;;;;;4862484;29;20182;-55
2024/03/18 15:47:47;;;;;;;12.30;8.80;;;;;;;;;;4857806;29;20179;-55
2024/03/18 15:50:14;;;;;;;12.67;7.27;;;;;;;;;;4862701;29;20200;-56
2024/03/18 15:52:41;;;;;;;10.97;8.10;;;;;;;;;;4848418;29;20867;-56
2024/03/18 15:55:08;;;;;;;12.33;8.23;;;;;;;;;;4852652;29;20192;-55
2024/03/18 15:57:34;;;;;;;13.37;7.47;;;;;;;;;;4859465;29;20188;-55
2024/03/18 16:00:00;;;;;;;11.07;7.10;;;;;;;;;;4856799;29;20778;-56
2024/03/18 16:02:27;;;;;;;18.27;8.27;;;;;;;;;;4857532;29;21731;-57